Date,TemperatureHighF,TemperatureAvgF,TemperatureLowF,DewpointHighF,DewpointAvgF,DewpointLowF,HumidityHigh,HumidityAvg,HumidityLow,PressureMaxIn,PressureMinIn,WindSpeedMaxMPH,WindSpeedAvgMPH,GustSpeedMaxMPH,PrecipitationSumIn
2013-1-1,48,41,34,45,38,32,96,87,70,30.06,29.50,13,1,13,0.03
2013-1-2,50,43,36,49,42,34,97,94,89,30.33,30.05,11,0,11,0.00
2013-1-3,52,50,47,49,48,46,97,93,89,30.62,30.33,9,1,9,0.00
2013-1-4,50,48,46,47,45,43,94,89,85,30.65,30.60,8,1,9,0.00
2013-1-5,50,47,39,48,45,38,98,93,87,30.60,30.51,7,0,7,0.00
2013-1-6,47,44,39,45,43,38,99,97,92,30.53,30.39,6,0,7,0.00
2013-1-7,48,46,44,46,44,42,97,94,91,30.39,30.24,7,0,7,0.00
2013-1-8,51,49,45,48,46,43,97,91,86,30.26,30.17,7,0,8,0.06
2013-1-9,51,43,30,48,41,29,98,93,71,30.19,30.07,5,0,6,0.07
2013-1-10,38,34,28,36,33,27,99,96,93,30.07,29.93,5,0,5,0.00
2013-1-11,44,37,32,41,35,31,98,94,86,30.09,29.97,5,0,5,0.00
2013-1-12,40,37,32,36,33,29,98,87,66,29.97,29.84,7,0,8,0.14
2013-1-13,37,34,29,33,30,26,90,86,82,30.15,29.96,8,0,8,0.01
2013-1-14,35,32,30,35,31,29,98,94,89,30.10,29.64,10,0,10,0.16
2013-1-15,37,32,26,33,30,25,98,92,83,29.87,29.64,13,1,13,0.02
2013-1-16,32,27,24,30,26,23,98,96,90,30.03,29.84,3,0,4,0.00
2013-1-17,34,29,24,31,27,23,97,93,81,30.08,29.88,2,0,4,0.00
2013-1-18,34,30,28,29,27,26,95,90,80,29.88,29.43,6,0,8,0.00
2013-1-19,32,31,30,31,29,26,97,92,87,29.50,29.40,5,0,7,0.01
2013-1-20,32,30,28,30,28,26,97,93,86,29.49,29.28,6,0,6,0.00
2013-1-21,33,30,25,31,29,23,97,94,89,29.50,29.26,2,0,2,0.00
2013-1-22,35,30,22,33,28,21,98,94,85,29.69,29.50,7,0,7,0.01
2013-1-23,34,33,32,32,31,30,96,92,88,29.81,29.69,6,0,6,0.05
2013-1-24,34,33,31,31,30,29,94,90,82,30.14,29.81,2,0,4,0.02
2013-1-25,37,33,30,35,30,28,95,88,80,30.12,29.55,10,1,11,0.10
2013-1-26,47,40,34,43,38,32,98,91,76,29.83,29.53,11,1,12,0.26
2013-1-27,50,45,37,48,40,34,96,82,55,29.63,29.26,19,2,19,0.21
2013-1-28,50,42,32,47,40,30,96,89,80,29.82,29.49,15,2,15,0.18
2013-1-29,55,52,48,53,50,45,98,92,84,29.65,29.53,16,2,16,0.06
2013-1-30,55,49,43,52,43,38,96,82,61,30.04,29.50,18,3,22,0.21
2013-1-31,50,47,43,44,41,38,89,80,66,30.04,29.78,18,3,18,0.10
2013-2-1,46,41,36,42,38,35,97,91,79,29.84,29.46,11,0,11,0.25
2013-2-2,47,38,27,37,31,25,94,79,56,30.25,29.61,13,2,16,0.00
2013-2-3,48,39,27,45,36,25,95,90,85,30.26,29.90,12,0,12,0.00
2013-2-4,53,47,42,46,40,34,92,76,53,29.95,29.70,18,3,18,0.01
2013-2-5,45,39,35,38,32,27,91,76,52,29.70,29.34,18,2,19,0.09
2013-2-6,43,39,34,38,33,28,93,81,70,30.07,29.37,19,3,20,0.07
2013-2-7,46,36,30,35,31,25,95,82,62,30.11,29.99,8,1,9,0.01
2013-2-8,47,37,31,37,33,29,96,87,65,30.16,30.03,9,1,9,0.01
2013-2-9,37,36,33,35,34,31,97,93,85,30.16,29.85,6,0,8,0.08
2013-2-10,40,37,32,40,36,31,98,97,95,29.85,29.26,7,0,8,0.59
2013-2-11,35,33,32,34,32,31,98,97,95,29.78,29.28,4,0,5,0.29
2013-2-12,35,33,31,32,30,29,97,92,85,30.14,29.78,5,0,5,0.03
2013-2-13,39,34,31,38,30,26,97,87,71,30.19,29.97,8,1,8,0.04
2013-2-14,56,45,37,47,41,35,98,87,64,29.98,29.72,10,1,13,0.13
2013-2-15,57,40,32,44,36,30,98,85,54,30.20,29.98,8,0,8,0.00
2013-2-16,51,42,35,42,37,33,96,84,59,30.25,30.18,4,0,5,0.00
2013-2-17,52,39,30,42,34,29,98,85,47,30.21,30.09,9,0,9,0.00
2013-2-18,52,38,30,39,34,28,98,84,54,30.15,30.09,6,0,6,0.00
2013-2-19,55,36,25,40,31,24,98,84,47,30.14,30.05,4,0,4,0.00
2013-2-20,46,36,31,37,31,26,98,83,58,30.27,30.10,8,0,9,0.01
2013-2-21,35,34,32,27,24,21,74,67,61,30.26,30.17,9,1,10,0.00
2013-2-22,37,33,31,26,24,21,77,69,60,30.17,30.11,8,0,8,0.00
2013-2-23,36,33,29,31,27,24,92,79,68,30.22,30.09,7,0,7,0.00
2013-2-24,36,33,31,29,28,26,90,81,73,30.30,30.20,10,1,11,0.00
2013-2-25,38,36,33,35,33,27,92,88,79,30.39,30.26,12,1,12,0.00
2013-2-26,40,38,36,38,36,34,96,94,90,30.57,30.39,7,0,7,0.02
2013-2-27,46,37,34,38,34,31,96,88,66,30.58,30.48,8,0,8,0.00
2013-2-28,48,39,32,38,34,30,94,83,61,30.49,30.33,5,0,7,0.00
2013-3-1,44,39,35,41,34,30,97,83,69,30.41,30.36,5,0,7,0.02
2013-3-2,41,36,27,34,30,25,94,80,71,30.41,30.28,5,0,5,0.00
2013-3-3,48,36,24,38,31,23,97,85,65,30.29,30.10,6,0,6,0.00
2013-3-4,55,40,31,38,33,29,95,78,45,30.10,29.74,8,0,8,0.00
2013-3-5,63,43,28,45,36,27,98,80,48,29.74,29.58,4,0,7,0.00
2013-3-6,56,48,41,45,42,38,89,79,65,29.58,29.50,4,0,5,0.01
2013-3-7,49,47,44,48,45,42,98,95,89,29.50,29.36,5,0,5,0.25
2013-3-8,50,48,45,49,47,45,98,97,96,29.54,29.37,2,0,2,0.31
2013-3-9,45,42,37,45,41,35,97,94,89,29.67,29.53,6,0,6,0.04
2013-3-10,39,36,32,35,32,28,92,87,81,29.75,29.66,9,0,9,0.00
2013-3-11,34,31,27,28,23,18,84,73,56,29.78,29.73,10,1,12,0.00
2013-3-12,46,34,27,32,24,19,87,70,41,29.83,29.75,14,1,14,0.00
2013-3-13,48,37,29,33,28,25,92,74,44,29.96,29.79,11,1,11,0.00
2013-3-14,50,36,26,33,26,21,95,70,38,30.03,29.91,8,0,10,0.00
2013-3-15,48,42,36,42,38,27,94,86,70,29.91,29.52,13,2,13,0.26
2013-3-16,49,43,39,42,40,37,96,89,73,29.53,29.26,14,3,14,0.40
2013-3-17,43,38,30,41,36,29,97,94,86,29.32,29.16,7,0,7,0.38
2013-3-18,48,36,29,42,35,28,99,95,75,29.36,29.21,4,0,4,0.08
2013-3-19,53,39,32,42,36,31,98,88,61,29.51,29.36,4,0,5,0.01
2013-3-20,42,38,31,39,35,29,97,91,86,30.00,29.51,6,0,9,0.00
2013-3-21,44,38,32,36,33,30,93,81,67,30.02,29.90,8,0,8,0.05
2013-3-22,44,38,35,38,34,32,94,88,74,29.90,29.72,9,1,11,0.26
2013-3-23,36,34,32,34,32,31,96,94,93,29.88,29.74,8,1,8,0.28
2013-3-24,33,32,30,31,28,24,95,86,70,29.95,29.86,8,0,8,0.00
2013-3-25,34,33,31,27,26,24,81,75,69,29.98,29.93,10,0,10,0.01
2013-3-26,35,33,31,27,25,24,82,74,67,29.95,29.89,7,0,9,0.00
2013-3-27,40,34,29,29,26,24,87,73,57,29.89,29.85,7,0,8,0.00
2013-3-28,42,35,29,31,27,22,91,73,57,29.95,29.85,7,0,8,0.00
2013-3-29,47,35,26,28,25,22,89,67,41,29.92,29.78,8,0,8,0.00
2013-3-30,45,36,31,32,28,25,82,72,52,29.97,29.78,9,0,9,0.00
2013-3-31,47,38,26,29,26,22,94,62,44,29.98,29.90,6,0,8,0.00
2013-4-1,45,37,30,30,26,23,85,66,48,29.90,29.83,9,1,10,0.00
2013-4-2,52,41,30,31,24,16,88,53,29,30.07,29.90,9,0,9,0.00
2013-4-3,47,38,31,30,26,23,90,61,45,30.07,30.00,10,1,13,0.00
2013-4-4,40,35,31,34,28,24,87,76,59,30.00,29.92,8,0,15,0.00
2013-4-5,49,39,33,32,28,22,83,66,37,30.13,29.91,11,1,13,0.00
2013-4-6,58,41,28,34,28,24,94,65,31,30.27,30.13,8,0,9,0.00
2013-4-7,53,39,25,33,26,19,95,64,28,30.27,29.87,6,0,8,0.00
2013-4-8,53,44,38,35,31,25,78,62,39,29.87,29.55,7,0,7,0.00
2013-4-9,50,42,37,43,38,33,95,84,72,29.55,29.38,8,0,8,0.12
2013-4-10,53,44,36,42,38,34,95,83,60,29.72,29.42,6,0,8,0.33
2013-4-11,55,46,41,47,43,40,97,90,69,29.49,29.36,8,0,8,0.17
2013-4-12,54,47,43,50,44,41,97,90,71,29.74,29.28,10,1,11,0.22
2013-4-13,52,46,35,51,44,33,98,92,78,29.90,29.74,9,1,10,0.11
2013-4-14,67,58,52,52,50,46,96,75,55,29.94,29.87,14,3,14,0.00
2013-4-15,60,54,48,50,47,44,88,78,64,30.06,29.93,11,2,13,0.00
2013-4-16,61,54,48,48,45,42,91,74,51,30.08,29.89,12,2,12,0.00
2013-4-17,63,54,45,52,48,42,97,81,62,30.08,29.76,13,2,15,0.00
2013-4-18,57,50,45,46,40,32,84,68,45,30.08,29.78,19,3,19,0.04
2013-4-19,61,49,40,42,39,35,87,70,41,30.50,30.07,12,1,13,0.00
2013-4-20,63,46,32,38,32,26,97,64,27,30.55,30.36,6,0,7,0.00
2013-4-21,60,45,30,40,34,28,95,67,33,30.36,30.02,8,1,8,0.00
2013-4-22,58,53,47,47,44,40,91,72,53,30.03,29.94,11,2,12,0.00
2013-4-23,70,57,47,50,48,44,95,73,46,30.21,29.98,8,1,9,0.00
2013-4-24,67,56,45,54,50,43,94,80,60,30.26,30.18,10,1,10,0.01
2013-4-25,72,58,49,56,50,47,97,77,45,30.25,30.02,12,1,12,0.00
2013-4-26,60,48,41,47,38,29,96,72,39,30.04,29.90,16,2,16,0.27
2013-4-27,56,43,34,44,36,31,93,77,53,30.11,29.89,11,0,11,0.03
2013-4-28,54,43,30,40,33,28,96,70,40,30.11,29.90,11,1,11,0.00
2013-4-29,59,49,41,42,37,32,90,64,39,30.18,29.88,12,2,12,0.00
2013-4-30,62,48,36,40,36,31,94,66,37,30.32,30.18,11,0,11,0.00
2013-5-1,67,49,36,40,34,25,93,61,23,30.31,30.17,7,0,8,0.00
2013-5-2,68,52,38,36,29,16,77,47,16,30.23,30.15,7,0,7,0.00
2013-5-3,70,52,36,46,38,32,89,63,35,30.19,30.04,11,1,11,0.00
2013-5-4,64,53,44,49,41,35,87,67,36,30.13,29.97,12,2,13,0.00
2013-5-5,68,55,42,52,46,38,91,71,52,30.19,30.13,7,0,7,0.00
2013-5-6,75,59,46,52,47,43,93,67,38,30.17,30.03,6,0,7,0.00
2013-5-7,76,59,43,49,44,40,93,63,30,30.08,29.84,6,0,7,0.00
2013-5-8,63,56,47,54,49,42,94,79,61,29.84,29.68,12,1,12,0.05
2013-5-9,57,50,42,47,42,38,92,77,53,29.83,29.65,18,3,18,0.05
2013-5-10,63,53,47,48,46,43,91,78,51,29.92,29.67,14,2,15,0.03
2013-5-11,56,48,41,47,42,39,95,83,58,29.92,29.79,15,1,19,0.20
2013-5-12,58,48,40,50,42,38,94,81,51,30.01,29.89,11,1,11,0.04
2013-5-13,60,52,46,50,42,33,93,71,39,29.91,29.80,14,2,16,0.00
2013-5-14,50,45,44,41,40,39,87,81,67,29.81,29.68,10,1,10,0.00
2013-5-17,51,50,49,44,44,44,82,80,77,29.80,29.78,1,0,2,0.00
2013-5-18,58,54,49,47,46,44,82,73,61,29.80,29.73,9,1,9,0.00
2013-5-19,66,61,53,52,49,47,84,67,57,29.90,29.87,7,0,8,0.00
2013-5-20,64,57,50,58,53,47,93,86,77,29.91,29.84,10,1,10,0.01
2013-5-21,60,57,53,56,52,49,90,83,70,30.07,29.91,9,1,9,0.00
2013-5-22,59,52,46,49,44,35,94,76,53,30.10,30.02,13,1,13,0.00
2013-5-23,57,46,41,43,38,33,85,72,51,30.02,29.88,15,2,15,0.04
2013-5-24,48,44,41,46,40,36,96,88,76,30.03,29.62,16,1,16,0.22
2013-5-25,63,50,40,46,41,38,96,74,43,30.17,30.03,8,0,9,0.00
2013-5-26,71,54,37,45,40,35,95,63,35,30.14,29.95,10,1,12,0.00
2013-5-27,64,53,40,44,38,25,93,62,26,29.95,29.62,15,1,15,0.00
2013-5-28,51,50,48,50,47,42,97,91,72,29.62,29.47,4,0,4,0.97
2013-5-29,54,50,44,53,48,43,97,93,84,29.77,29.56,8,0,10,0.05
2013-5-30,60,54,51,55,52,50,97,91,79,30.00,29.74,9,0,10,0.14
2013-5-31,74,61,51,60,52,48,93,76,52,30.12,30.00,9,1,12,0.00
2013-6-1,70,57,49,51,45,41,84,66,42,30.30,30.12,12,2,13,0.00
2013-6-2,71,56,45,47,44,42,91,65,38,30.43,30.30,9,1,11,0.00
2013-6-3,69,56,44,48,44,41,93,65,40,30.49,30.39,4,0,5,0.00
2013-6-4,70,56,42,49,44,38,87,65,39,30.42,30.21,6,0,6,0.00
2013-6-5,71,57,47,54,48,43,91,73,47,30.23,30.07,5,0,7,0.00
2013-6-6,73,58,47,55,48,43,90,70,48,30.19,30.11,4,0,4,0.00
2013-6-7,70,58,49,53,47,42,79,66,51,30.22,30.16,5,0,5,0.00
2013-6-8,66,56,48,50,46,43,86,70,50,30.22,30.06,5,0,6,0.00
2013-6-9,62,54,50,49,46,43,81,72,57,30.08,29.95,3,0,4,0.00
2013-6-10,62,53,45,48,44,40,88,73,53,30.00,29.94,4,0,4,0.00
2013-6-11,64,56,46,58,51,43,91,84,71,29.96,29.88,8,0,8,0.00
2013-6-12,62,59,56,59,55,52,95,88,76,29.89,29.78,11,2,11,0.09
2013-6-13,65,57,52,55,51,46,93,80,61,30.04,29.76,14,2,16,0.00
2013-6-14,67,56,46,52,48,38,94,75,37,30.06,29.78,10,1,10,0.00
2013-6-15,61,56,49,56,49,43,95,78,57,29.87,29.68,14,2,14,0.29
2013-6-16,63,57,51,52,49,47,88,77,62,29.95,29.86,6,0,7,0.01
2013-6-17,68,60,53,54,51,48,89,72,55,29.96,29.90,4,0,5,0.01
2013-6-18,69,62,55,62,56,50,89,80,72,29.97,29.90,3,0,3,0.00
2013-6-19,82,68,58,64,60,56,95,77,47,29.97,29.91,6,0,6,0.00
2013-6-20,68,64,59,62,59,55,88,82,75,29.95,29.77,6,0,6,0.00
2013-6-21,73,63,56,60,56,53,94,81,56,29.86,29.76,9,0,10,0.00
2013-6-22,63,57,52,56,53,49,96,85,72,29.85,29.64,10,2,11,0.15
2013-6-23,62,57,52,53,51,49,93,81,68,30.02,29.64,16,2,16,0.04
2013-6-24,64,56,49,49,46,43,89,71,51,30.29,30.02,10,1,13,0.00
2013-6-25,70,58,49,49,47,44,90,68,42,30.41,30.29,6,0,7,0.01
2013-6-26,72,60,47,54,49,44,94,70,40,30.43,30.35,6,0,7,0.00
2013-6-27,70,58,52,53,49,46,94,73,48,30.38,30.17,9,1,9,0.04
2013-6-28,71,61,53,63,57,51,96,89,70,30.17,30.04,10,0,10,0.05
2013-6-29,74,64,54,57,51,47,88,65,41,30.24,30.07,11,1,11,0.01
2013-6-30,80,66,57,60,56,50,94,71,40,30.24,30.06,6,1,11,0.00
2013-7-1,70,62,55,53,50,46,85,66,46,30.07,29.97,8,1,9,0.00
2013-7-2,62,57,51,55,51,47,88,81,66,29.99,29.65,9,1,10,0.01
2013-7-3,70,62,57,59,56,52,96,82,62,30.01,29.60,9,1,10,0.04
2013-7-4,77,64,53,62,56,50,94,77,52,30.25,30.01,9,1,10,0.00
2013-7-5,80,65,52,60,54,49,95,70,40,30.41,30.25,5,0,5,0.00
2013-7-6,83,68,52,60,55,50,95,68,39,30.41,30.33,5,0,5,0.00
2013-7-7,86,72,58,62,58,54,93,64,37,30.49,30.40,4,0,4,0.00
2013-7-8,83,69,57,62,57,52,89,67,44,30.52,30.42,5,0,5,0.00
2013-7-9,83,67,52,56,47,38,87,53,22,30.44,30.25,4,0,4,0.00
2013-7-10,79,65,54,60,52,44,77,63,47,30.29,30.24,4,0,5,0.00
2013-7-11,76,62,51,53,48,44,84,62,40,30.30,30.21,3,0,3,0.00
2013-7-12,80,64,52,59,53,48,87,69,44,30.30,30.20,2,0,2,0.00
2013-7-13,93,74,57,66,60,54,92,65,34,30.23,30.19,6,0,6,0.00
2013-7-14,89,74,62,64,59,55,90,63,36,30.24,30.16,9,1,9,0.00
2013-7-15,91,73,59,56,48,33,78,46,18,30.23,30.17,6,0,6,0.00
2013-7-16,89,74,60,60,56,51,83,57,31,30.21,30.15,5,0,5,0.00
2013-7-17,70,64,60,62,57,55,87,77,60,30.23,30.19,1,0,2,0.00
2013-7-18,75,75,75,54,54,54,48,48,48,30.27,30.26,0,0,1,0.00
2013-7-22,90,82,72,64,61,58,69,51,36,29.95,29.92,6,0,6,0.00
2013-7-23,85,72,64,71,64,59,96,77,51,29.94,29.86,6,0,6,0.29
2013-7-24,79,68,58,62,58,55,91,72,45,29.96,29.90,9,0,10,0.00
2013-7-25,78,68,61,65,60,55,96,79,46,29.92,29.86,8,0,8,0.22
2013-7-26,80,67,54,58,54,51,96,68,42,29.91,29.83,6,0,6,0.00
2013-7-27,85,66,55,63,56,50,95,72,35,29.85,29.57,7,0,7,0.25
2013-7-28,75,65,57,60,57,54,96,77,50,29.76,29.58,9,1,12,0.05
2013-7-29,73,64,58,61,58,55,94,81,55,29.96,29.76,9,1,11,0.22
2013-7-30,71,62,57,65,59,56,97,90,74,29.96,29.84,6,0,7,0.32
2013-7-31,76,66,60,65,61,56,94,83,67,29.98,29.93,9,1,10,0.02
2013-8-1,90,75,62,69,63,60,95,70,38,29.93,29.66,8,0,10,0.00
2013-8-2,72,64,61,62,59,57,91,83,66,29.78,29.72,4,0,6,0.00
2013-8-4,66,64,63,57,56,56,79,76,71,30.03,30.02,4,0,4,0.00
2013-8-5,72,64,58,64,59,56,96,84,65,30.02,29.76,8,0,8,0.66
2013-8-6,76,61,50,57,53,49,98,77,44,30.03,29.91,5,0,6,0.00
2013-8-7,75,64,55,56,52,48,94,68,43,30.03,29.90,5,0,5,0.00
2013-8-8,79,63,50,56,51,47,94,68,38,30.12,30.03,6,0,6,0.00
2013-8-9,78,66,60,61,55,47,95,69,41,30.18,30.01,9,1,11,0.02
2013-8-10,73,63,55,53,50,46,82,63,42,30.20,30.12,8,0,8,0.00
2013-8-11,76,65,59,58,52,47,86,65,38,30.12,30.00,7,0,11,0.00
2013-8-12,73,61,54,53,49,44,89,66,39,30.09,29.99,10,1,10,0.00
2013-8-13,70,58,49,56,50,46,92,76,45,30.20,30.09,9,0,9,0.02
2013-8-14,71,59,48,60,54,47,97,84,53,30.22,30.14,7,0,8,0.04
2013-8-15,73,66,61,66,62,59,96,88,69,30.14,29.99,10,0,10,0.09
2013-8-16,75,66,62,66,61,59,94,86,60,30.00,29.92,8,0,8,0.07
2013-8-17,67,61,55,60,57,54,95,86,67,29.98,29.72,10,1,11,0.01
2013-8-18,74,65,59,61,56,51,95,75,50,29.90,29.70,7,0,8,0.02
2013-8-19,78,62,51,54,50,47,93,68,39,30.31,29.90,9,0,10,0.00
2013-8-20,78,65,50,54,51,47,92,63,37,30.36,30.28,5,0,5,0.00
2013-8-21,83,65,51,58,52,48,95,67,35,30.30,30.13,7,0,8,0.00
2013-8-22,75,66,61,66,62,58,97,86,70,30.15,30.04,4,0,4,0.07
2013-8-23,82,68,58,63,59,55,97,75,47,30.05,29.84,4,0,4,0.00
2013-8-24,67,63,59,63,59,53,95,88,79,29.87,29.80,9,1,9,0.32
2013-8-25,79,64,55,66,57,49,96,79,52,30.04,29.83,10,0,11,0.03
2013-8-26,83,67,57,63,57,51,96,73,40,30.09,30.02,3,0,3,0.00
2013-8-27,80,63,51,58,51,47,97,70,37,30.12,30.04,5,0,8,0.00
2013-8-28,83,64,50,55,52,47,95,69,34,30.22,30.12,5,0,5,0.00
2013-8-29,77,64,55,58,55,52,92,73,46,30.19,30.12,8,0,8,0.00
2013-8-30,79,65,57,60,57,54,94,77,49,30.13,30.03,9,0,10,0.00
2013-8-31,77,62,53,59,48,42,93,63,30,30.40,30.11,9,0,9,0.00
2013-9-1,74,58,46,52,47,42,88,67,41,30.44,30.32,8,0,9,0.00
2013-9-2,82,64,50,59,54,47,94,72,43,30.35,30.28,8,0,8,0.00
2013-9-3,79,65,53,64,57,51,97,77,52,30.35,30.25,5,0,5,0.00
2013-9-4,85,66,52,63,55,50,98,71,32,30.26,29.99,5,0,5,0.00
2013-9-5,90,68,53,61,55,49,96,68,32,29.99,29.75,6,0,7,0.00
2013-9-6,64,58,52,55,52,47,90,80,65,29.82,29.70,5,0,6,0.02
2013-9-7,66,55,48,52,48,43,95,77,44,30.03,29.81,7,0,7,0.00
2013-9-8,63,52,43,52,46,41,97,83,53,30.06,30.02,10,0,10,0.10
2013-9-9,57,51,45,55,50,44,98,95,92,30.05,29.96,1,0,1,0.18
2013-9-10,62,54,46,52,48,45,97,83,62,30.16,30.05,9,1,9,0.01
2013-9-11,63,56,52,54,51,47,96,82,64,30.18,30.10,8,0,9,0.09
2013-9-12,70,59,54,60,55,52,97,89,65,30.11,30.05,3,0,3,0.03
2013-9-13,66,61,54,63,60,53,98,95,88,30.06,29.89,1,0,1,0.13
2013-9-14,57,51,45,53,49,44,97,93,81,30.08,29.90,3,0,3,0.49
2013-9-15,59,51,41,58,48,40,98,91,75,30.07,29.54,10,1,12,0.11
2013-9-16,62,51,44,47,42,39,90,72,47,29.64,29.58,10,0,14,0.03
2013-9-17,56,51,44,55,48,40,97,89,75,29.65,29.34,6,0,6,0.01
2013-9-18,64,53,47,53,48,43,96,84,57,29.87,29.40,7,0,7,0.01
2013-9-19,61,51,42,59,49,40,97,90,77,29.90,29.72,9,0,9,0.01
2013-9-20,71,56,45,55,49,43,97,80,51,30.18,29.87,3,0,5,0.01
2013-9-21,66,57,48,61,54,45,96,90,82,30.30,30.17,5,0,6,0.00
2013-9-22,68,62,55,62,59,53,96,90,78,30.37,30.29,4,0,5,0.01
2013-9-23,63,59,53,59,56,51,97,92,85,30.33,30.11,2,0,2,0.01
2013-9-24,74,57,47,63,54,46,98,89,65,30.11,29.92,2,0,2,0.00
2013-9-25,74,61,54,63,57,52,97,87,65,29.92,29.82,1,0,1,0.01
2013-9-26,75,60,52,58,53,49,93,79,46,30.05,29.90,0,0,0,0.00
2013-9-27,72,56,48,56,50,46,96,80,50,30.05,29.91,0,0,1,0.01
2013-9-28,67,58,51,59,52,48,96,83,64,29.92,29.73,2,0,2,0.00
2013-9-29,76,60,56,59,53,51,89,78,49,29.74,29.69,4,0,4,0.00
2013-9-30,67,59,53,57,53,49,94,80,62,29.78,29.67,1,0,1,0.00
2013-10-1,63,57,50,57,52,48,97,85,75,29.81,29.75,1,0,1,0.01
2013-10-2,70,61,56,63,57,52,97,88,74,29.87,29.77,5,0,5,0.00
2013-10-3,65,60,55,62,59,54,97,94,88,29.86,29.68,5,0,6,0.08
2013-10-4,71,63,59,62,59,57,98,87,67,29.94,29.65,10,1,11,0.01
2013-10-5,67,59,52,58,55,49,96,87,70,30.25,29.94,6,0,6,0.00
2013-10-6,71,54,42,56,48,41,98,83,50,30.30,30.24,5,0,5,0.01
2013-10-7,67,56,48,60,53,46,98,88,69,30.30,30.24,4,0,5,0.00
2013-10-8,66,60,52,59,56,50,98,89,76,30.27,30.22,5,0,6,0.01
2013-10-9,64,55,45,55,49,38,95,81,64,30.23,29.98,10,1,12,0.01
2013-10-10,54,47,43,41,39,37,82,73,60,30.13,30.01,12,2,16,0.00
2013-10-11,56,51,46,52,48,39,94,88,77,30.14,29.98,16,1,19,0.00
2013-10-12,62,54,49,52,49,45,95,84,59,30.12,29.98,9,0,10,0.00
2013-10-13,52,50,47,51,48,45,97,95,90,30.00,29.78,10,0,10,0.01
2013-10-14,51,48,46,48,46,45,97,94,88,29.78,29.70,6,0,6,0.00
2013-10-15,60,49,42,52,46,41,97,91,73,29.96,29.75,6,0,6,0.00
2013-10-16,59,49,38,59,47,37,99,92,79,29.97,29.68,8,0,9,0.01
2013-10-17,65,56,48,58,52,46,95,87,71,30.00,29.80,9,0,9,0.03
2013-10-18,62,58,48,58,54,47,98,89,83,30.02,29.76,2,0,2,0.03
2013-10-19,65,57,51,60,55,50,98,93,82,29.76,29.62,6,0,6,0.02
2013-10-20,64,55,51,58,53,49,98,94,79,29.73,29.61,9,0,9,0.01
2013-10-21,63,59,55,58,56,53,98,91,84,29.74,29.58,12,1,12,0.00
2013-10-22,64,60,54,60,57,53,97,91,83,29.58,29.31,8,1,9,0.01
2013-10-23,64,56,45,56,51,42,97,85,58,29.85,29.24,15,1,15,0.00
2013-10-24,66,50,39,59,47,38,99,89,65,29.98,29.81,4,0,5,0.00
2013-10-25,65,59,54,60,55,52,98,88,74,29.82,29.58,9,1,11,1.55
2013-10-26,61,59,57,56,54,53,93,85,79,29.69,29.46,11,2,12,0.01
2013-10-27,61,55,50,55,51,47,97,85,67,29.47,29.20,13,2,17,0.46
2013-10-28,60,52,45,59,49,43,98,87,68,29.59,28.86,22,2,23,0.27
2013-10-29,57,47,40,48,42,38,95,84,57,30.06,29.59,8,0,14,0.00
2013-10-30,58,47,34,51,43,33,98,87,68,30.18,30.06,9,0,9,0.01
2013-10-31,55,54,52,53,51,49,95,91,84,30.06,29.92,9,0,9,0.07
2013-11-1,56,53,50,54,51,48,96,93,89,29.92,29.55,8,0,8,0.02
2013-11-2,60,52,48,53,47,41,97,85,67,29.57,29.36,13,2,18,0.01
2013-11-3,55,48,44,44,42,39,97,80,61,29.58,29.05,13,1,13,0.01
2013-11-4,55,43,35,45,40,34,97,88,63,29.50,29.01,12,1,12,0.59
2013-11-5,55,46,35,52,42,33,98,88,71,29.52,29.24,14,1,16,0.19
2013-11-6,58,52,47,56,50,43,98,93,82,29.54,29.46,12,1,12,0.10
2013-11-7,57,48,40,55,45,38,96,90,75,29.77,29.51,9,0,9,0.21
2013-11-8,50,41,35,49,40,34,99,97,95,29.77,29.58,4,0,5,0.10
2013-11-9,46,39,32,45,39,32,99,98,96,29.77,29.61,3,0,3,0.06
2013-11-10,56,41,33,45,38,32,98,89,57,30.27,29.62,8,0,9,0.02
2013-11-11,55,47,34,54,46,32,99,98,96,30.26,30.13,6,0,6,0.11
2013-11-12,57,48,35,54,46,34,98,93,78,30.52,30.14,11,0,11,0.08
2013-11-13,51,40,31,46,37,30,99,89,74,30.57,30.19,5,0,6,0.03
2013-11-14,52,46,38,44,40,35,90,80,66,30.42,30.11,14,2,18,0.01
2013-11-15,57,40,32,44,35,30,94,82,56,30.54,30.42,6,0,6,0.00
2013-11-16,49,39,29,43,37,28,98,93,78,30.52,30.38,3,0,3,0.00
2013-11-17,50,46,44,47,45,42,96,94,90,30.38,30.01,1,0,1,0.00
2013-11-18,48,46,42,46,44,39,97,94,88,30.01,29.76,8,0,10,0.00
2013-11-19,49,37,27,39,33,25,94,85,59,30.07,29.80,11,1,11,0.00
2013-11-20,44,36,28,42,34,26,96,92,84,30.05,29.40,19,1,19,0.19
2013-11-21,49,40,36,42,37,34,96,88,68,29.94,29.42,10,0,11,0.03
2013-11-22,51,40,36,41,36,33,96,86,61,30.17,29.94,8,0,9,0.00
2013-11-23,46,40,34,39,37,33,97,89,75,30.32,30.17,8,0,8,0.00
2013-11-24,47,42,38,43,39,35,92,88,82,30.58,30.32,12,0,12,0.00
2013-11-25,44,41,38,40,37,35,94,88,81,30.69,30.57,8,0,8,0.00
2013-11-26,47,39,30,39,35,28,97,85,70,30.72,30.58,5,0,7,0.00
2013-11-27,51,45,42,48,43,38,97,93,85,30.58,30.48,2,0,3,0.01
2013-11-28,50,46,43,47,44,42,98,93,87,30.57,30.52,4,0,4,0.00
2013-11-29,50,46,42,44,41,38,95,85,72,30.52,30.18,11,1,12,0.00
2013-11-30,52,41,34,42,37,31,94,83,67,30.47,30.19,10,1,10,0.00
2013-12-1,49,41,31,44,38,29,96,91,82,30.57,30.44,3,0,4,0.00
2013-12-2,49,45,42,44,41,39,95,89,76,30.57,30.45,1,0,1,0.00
2013-12-3,43,42,40,40,37,35,92,84,78,30.45,30.32,4,0,4,0.00
2013-12-4,46,40,30,44,36,28,97,88,71,30.50,30.30,8,0,11,0.00
2013-12-5,50,40,28,45,35,27,97,83,66,30.48,30.02,15,1,15,0.02
2013-12-6,50,41,34,41,36,30,96,81,61,30.38,30.25,9,0,9,0.00
2013-12-7,47,44,40,44,42,39,96,93,86,30.35,30.26,6,0,6,0.00
2013-12-8,52,44,37,47,42,36,97,91,79,30.31,30.24,7,0,9,0.01
2013-12-9,52,42,32,47,40,31,98,93,83,30.41,30.31,4,0,6,0.00
2013-12-10,49,38,31,46,36,30,99,96,86,30.46,30.40,4,0,4,0.01
2013-12-11,39,35,29,39,34,28,99,98,97,30.44,30.31,0,0,0,0.00
2013-12-12,48,40,29,47,39,28,99,97,93,30.31,30.19,3,0,3,0.01
2013-12-13,53,48,44,50,46,41,99,94,80,30.19,30.01,7,0,7,0.01
2013-12-14,52,40,32,48,38,31,99,94,80,30.29,30.03,12,0,13,0.06
2013-12-15,54,50,38,52,49,37,99,95,92,30.16,29.97,11,1,13,0.21
2013-12-16,55,52,44,53,50,42,97,94,90,30.13,29.92,19,1,19,0.38
2013-12-17,43,41,39,42,40,38,98,97,95,30.27,29.98,4,0,4,0.17
2013-12-18,50,45,36,48,44,35,99,94,88,29.99,29.28,15,2,18,0.22
2013-12-19,48,42,34,45,38,32,95,88,72,29.86,29.31,7,0,9,0.16
2013-12-20,51,42,32,47,39,31,98,89,78,30.17,29.86,16,1,16,0.02
2013-12-21,53,51,46,51,48,41,94,91,80,30.04,29.69,17,3,17,0.21
2013-12-22,51,45,38,44,40,35,91,83,67,29.91,29.70,14,1,15,0.00
2013-12-23,52,47,36,50,44,34,97,92,88,29.91,28.83,21,3,21,0.64
2013-12-24,53,45,40,50,42,37,95,88,77,28.97,28.76,20,2,20,0.52
2013-12-25,44,37,32,42,36,31,98,94,83,29.18,28.92,7,0,8,0.10
2013-12-26,44,37,33,42,36,32,99,97,88,29.49,29.17,13,0,14,0.03
2013-12-27,51,48,42,50,42,37,96,80,66,29.25,28.98,16,3,19,0.08
2013-12-28,49,38,29,40,34,28,97,87,70,29.72,29.25,6,0,7,0.00
2013-12-29,46,35,27,42,33,26,98,92,78,30.08,29.72,8,0,8,0.00
2013-12-30,50,46,36,47,43,35,97,90,81,29.97,29.64,16,2,18,0.20
2013-12-31,50,44,38,47,42,36,98,95,88,29.84,29.54,9,1,9,0.31
2014-1-1,51,47,40,49,45,38,98,94,87,29.57,29.03,14,2,15,0.24
2014-1-2,51,47,41,48,44,40,95,89,78,29.45,29.06,10,1,13,0.13